createdAt,value
2018-02-09T00:01:12.934Z,80.97
2018-02-09T00:03:40.523Z,87.73
2018-02-09T00:06:08.097Z,86.77
2018-02-09T00:08:35.828Z,88.23
2018-02-09T00:11:04.161Z,88.53
2018-02-09T00:13:31.699Z,86.23
2018-02-09T00:15:59.300Z,87.40
2018-02-09T00:18:26.835Z,84.60
2018-02-09T00:20:54.377Z,85.00
2018-02-09T00:23:21.935Z,85.30
2018-02-09T00:25:49.508Z,98.10
2018-02-09T00:28:17.084Z,93.37
2018-02-09T00:30:45.443Z,91.93
2018-02-09T00:33:12.983Z,94.53
2018-02-09T00:35:40.556Z,94.90
2018-02-09T00:38:08.284Z,95.63
2018-02-09T00:40:36.533Z,93.63
2018-02-09T00:43:04.106Z,100.67
2018-02-09T00:45:31.865Z,102.70
2018-02-09T00:47:59.399Z,93.80
2018-02-09T00:50:27.737Z,83.73
2018-02-09T00:52:55.387Z,87.03
2018-02-09T00:55:23.706Z,95.07
2018-02-09T00:57:51.248Z,92.73
2018-02-09T01:00:18.832Z,99.00
2018-02-09T01:02:46.405Z,92.80
2018-02-09T01:05:13.980Z,91.97
2018-02-09T01:07:41.509Z,93.97
2018-02-09T01:10:09.039Z,93.77
2018-02-09T01:12:36.590Z,86.73
2018-02-09T01:15:04.192Z,95.10
2018-02-09T01:17:31.727Z,93.00
2018-02-09T01:19:59.263Z,89.53
2018-02-09T01:22:26.849Z,92.27
2018-02-09T01:24:55.188Z,84.43
2018-02-09T01:27:22.698Z,90.60
2018-02-09T01:29:50.476Z,86.83
2018-02-09T01:32:18.015Z,91.43
2018-02-09T01:34:45.531Z,89.10
2018-02-09T01:37:13.067Z,89.13
2018-02-09T01:39:40.640Z,91.40
2018-02-09T01:42:08.175Z,91.17
2018-02-09T01:44:35.947Z,91.00
2018-02-09T01:47:03.565Z,89.13
2018-02-09T01:49:31.140Z,92.00
2018-02-09T01:51:59.680Z,96.13
2018-02-09T01:54:27.257Z,88.23
2018-02-09T01:56:54.835Z,88.13
2018-02-09T01:59:22.425Z,93.10
2018-02-09T02:01:50.010Z,85.00
2018-02-09T02:04:17.584Z,88.70
2018-02-09T02:06:45.147Z,93.00
2018-02-09T02:09:12.688Z,93.73
2018-02-09T02:11:40.256Z,93.60
2018-02-09T02:14:07.806Z,93.40
2018-02-09T02:16:35.328Z,98.37
2018-02-09T02:19:02.866Z,91.20
2018-02-09T02:21:30.494Z,91.73
2018-02-09T02:23:58.153Z,94.97
2018-02-09T02:26:25.709Z,101.10
2018-02-09T02:28:53.480Z,97.40
2018-02-09T02:31:21.785Z,91.30
2018-02-09T02:33:49.260Z,99.70
2018-02-09T02:36:17.004Z,103.57
2018-02-09T02:38:44.547Z,99.67
2018-02-09T02:41:12.090Z,103.23
2018-02-09T02:43:39.686Z,94.67
2018-02-09T02:46:07.260Z,101.57
2018-02-09T02:48:34.850Z,93.47
2018-02-09T02:51:03.525Z,93.53
2018-02-09T02:53:31.071Z,94.13
2018-02-09T02:55:59.485Z,86.63
2018-02-09T02:58:27.064Z,85.37
2018-02-09T03:00:54.596Z,90.93
2018-02-09T03:03:22.139Z,89.37
2018-02-09T03:05:49.740Z,86.10
2018-02-09T03:08:17.284Z,88.90
2018-02-09T03:10:44.802Z,89.50
2018-02-09T03:13:13.441Z,101.10
2018-02-09T03:15:41.021Z,92.37
2018-02-09T03:18:08.548Z,87.17
2018-02-09T03:20:36.264Z,99.40
2018-02-09T03:23:03.834Z,94.23
2018-02-09T03:25:32.182Z,99.80
2018-02-09T03:27:59.964Z,98.07
2018-02-09T03:30:27.553Z,93.93
2018-02-09T03:32:55.124Z,86.20
2018-02-09T03:35:22.779Z,97.13
2018-02-09T03:37:51.091Z,97.40
2018-02-09T03:40:18.668Z,93.07
2018-02-09T03:42:46.258Z,99.90
2018-02-09T03:45:13.833Z,96.90
2018-02-09T03:47:41.375Z,103.30
2018-02-09T03:50:08.929Z,101.33
2018-02-09T03:52:36.495Z,94.43
2018-02-09T03:55:04.034Z,95.77
2018-02-09T03:57:31.818Z,90.57
2018-02-09T03:59:59.388Z,93.63
2018-02-09T04:02:26.965Z,98.27
2018-02-09T04:04:54.719Z,88.60
2018-02-09T04:07:22.293Z,89.30
2018-02-09T04:09:49.840Z,91.13
2018-02-09T04:12:18.300Z,97.67
2018-02-09T04:14:45.843Z,95.33
2018-02-09T04:17:14.184Z,103.07
2018-02-09T04:19:41.752Z,87.23
2018-02-09T04:22:10.052Z,94.97
2018-02-09T04:24:37.566Z,93.50
2018-02-09T04:27:05.178Z,99.73
2018-02-09T04:29:32.719Z,97.67
2018-02-09T04:32:00.270Z,95.43
2018-02-09T04:34:28.000Z,95.03
2018-02-09T04:36:55.533Z,88.80
2018-02-09T04:39:23.072Z,89.57
2018-02-09T04:41:50.760Z,89.70
2018-02-09T04:44:19.072Z,84.73
2018-02-09T04:46:46.648Z,84.30
2018-02-09T04:49:14.524Z,87.43
2018-02-09T04:51:42.852Z,90.67
2018-02-09T04:54:10.436Z,90.87
2018-02-09T04:56:38.843Z,89.87
2018-02-09T04:59:07.148Z,95.67
2018-02-09T05:01:35.490Z,93.33
2018-02-09T05:04:03.974Z,93.67
2018-02-09T05:06:31.541Z,98.97
2018-02-09T05:08:59.120Z,100.30
2018-02-09T05:11:26.894Z,106.37
2018-02-09T05:13:54.476Z,88.93
2018-02-09T05:16:22.775Z,101.60
2018-02-09T05:18:50.342Z,98.17
2018-02-09T05:21:17.920Z,87.57
2018-02-09T05:23:46.197Z,95.10
2018-02-09T05:26:13.702Z,99.77
2018-02-09T05:28:41.236Z,100.90
2018-02-09T05:31:08.776Z,105.40
2018-02-09T05:33:36.552Z,103.93
2018-02-09T05:36:04.863Z,102.80
2018-02-09T05:38:32.429Z,95.13
2018-02-09T05:41:00.038Z,96.17
2018-02-09T05:43:27.629Z,97.93
2018-02-09T05:45:55.204Z,101.17
2018-02-09T05:48:23.828Z,99.93
2018-02-09T05:50:51.398Z,99.70
2018-02-09T05:53:19.753Z,100.70
2018-02-09T05:55:47.364Z,95.93
2018-02-09T05:58:14.952Z,91.20
2018-02-09T06:00:43.265Z,95.63
2018-02-09T06:03:10.827Z,96.40
2018-02-09T06:05:38.365Z,98.83
2018-02-09T06:08:05.932Z,95.93
2018-02-09T06:10:33.664Z,103.00
2018-02-09T06:13:01.200Z,104.53
2018-02-09T06:15:28.768Z,99.33
2018-02-09T06:17:56.331Z,93.60
2018-02-09T06:20:24.638Z,91.40
2018-02-09T06:22:52.213Z,100.07
2018-02-09T06:25:19.904Z,97.80
2018-02-09T06:27:47.450Z,104.03
2018-02-09T06:30:14.992Z,107.00
2018-02-09T06:32:42.791Z,99.53
2018-02-09T06:35:10.368Z,98.80
2018-02-09T06:37:38.679Z,104.67
2018-02-09T06:40:06.244Z,110.53
2018-02-09T06:42:33.783Z,109.63
2018-02-09T06:45:01.324Z,112.13
2018-02-09T06:47:29.313Z,100.60
2018-02-09T06:49:57.626Z,107.10
2018-02-09T06:52:25.934Z,104.13
2018-02-09T06:54:54.436Z,97.80
2018-02-09T06:57:22.008Z,101.20
2018-02-09T06:59:49.580Z,91.60
2018-02-09T07:02:17.915Z,103.07
2018-02-09T07:04:45.497Z,109.73
2018-02-09T07:07:13.803Z,98.00
2018-02-09T07:09:41.416Z,105.17
2018-02-09T07:12:08.990Z,95.50
2018-02-09T07:14:36.561Z,99.87
2018-02-09T07:17:04.237Z,100.20
2018-02-09T07:19:32.539Z,96.57
2018-02-09T07:22:00.087Z,100.43
2018-02-09T07:24:27.698Z,99.83
2018-02-09T07:26:55.994Z,102.07
2018-02-09T07:29:23.563Z,105.77
2018-02-09T07:31:51.248Z,98.07
2018-02-09T07:34:18.791Z,107.87
2018-02-09T07:36:46.334Z,97.67
2018-02-09T07:39:13.926Z,91.77
2018-02-09T07:41:41.461Z,100.93
2018-02-09T07:44:08.995Z,99.47
2018-02-09T07:46:36.564Z,100.20
2018-02-09T07:49:04.120Z,102.53
2018-02-09T07:51:31.691Z,99.53
2018-02-09T07:54:00.319Z,97.17
2018-02-09T07:56:28.656Z,96.03
2018-02-09T07:58:56.232Z,97.70
2018-02-09T08:01:23.974Z,98.33
2018-02-09T08:03:51.507Z,106.20
2018-02-09T08:06:19.042Z,94.97
2018-02-09T08:08:46.619Z,101.70
2018-02-09T08:11:14.151Z,97.37
2018-02-09T08:13:41.690Z,106.80
2018-02-09T08:16:09.481Z,97.23
2018-02-09T08:18:37.787Z,100.27
2018-02-09T08:21:05.358Z,103.27
2018-02-09T08:23:33.308Z,97.87
2018-02-09T08:26:00.884Z,98.00
2018-02-09T08:28:29.229Z,95.63
2018-02-09T08:30:56.762Z,96.13
2018-02-09T08:33:24.291Z,96.03
2018-02-09T08:35:51.817Z,95.57
2018-02-09T08:38:19.451Z,91.07
2018-02-09T08:40:47.020Z,96.83
2018-02-09T08:43:15.400Z,95.03
2018-02-09T08:45:43.034Z,94.93
2018-02-09T08:48:10.597Z,93.50
2018-02-09T08:50:38.179Z,95.60
2018-02-09T08:53:05.735Z,99.10
2018-02-09T08:55:33.281Z,101.97
2018-02-09T08:58:00.865Z,97.57
2018-02-09T09:00:28.423Z,103.93
2018-02-09T09:02:56.004Z,98.47
2018-02-09T09:05:23.596Z,102.43
2018-02-09T09:07:51.159Z,91.83
2018-02-09T09:10:19.474Z,93.90
2018-02-09T09:12:47.045Z,89.97
2018-02-09T09:15:14.647Z,93.27
2018-02-09T09:17:42.163Z,91.93
2018-02-09T09:20:09.749Z,90.33
2018-02-09T09:22:37.396Z,88.10
2018-02-09T09:25:04.933Z,92.87
2018-02-09T09:27:32.482Z,86.20
2018-02-09T09:30:00.251Z,91.40
2018-02-09T09:32:27.816Z,95.13
2018-02-09T09:34:55.388Z,99.50
2018-02-09T09:37:22.950Z,102.20
2018-02-09T09:39:50.491Z,96.77
2018-02-09T09:42:18.070Z,104.43
2018-02-09T09:44:46.001Z,92.53
2018-02-09T09:47:13.552Z,99.07
2018-02-09T09:49:41.120Z,97.33
2018-02-09T09:52:10.480Z,93.43
2018-02-09T09:54:38.023Z,99.23
2018-02-09T09:57:05.593Z,94.73
2018-02-09T09:59:33.157Z,92.33
2018-02-09T10:02:01.475Z,88.57
2018-02-09T10:04:29.825Z,98.63
2018-02-09T10:06:57.556Z,92.60
2018-02-09T10:09:25.034Z,94.60
2018-02-09T10:11:52.555Z,92.17
2018-02-09T10:14:20.439Z,103.50
2018-02-09T10:16:47.925Z,94.50
2018-02-09T10:19:16.258Z,100.73
2018-02-09T10:21:44.871Z,96.17
2018-02-09T10:24:12.468Z,105.90
2018-02-09T10:26:40.084Z,97.77
2018-02-09T10:29:07.692Z,88.50
2018-02-09T10:31:35.260Z,90.10
2018-02-09T10:34:02.791Z,96.00
2018-02-09T10:36:30.621Z,87.57
2018-02-09T10:38:58.204Z,85.57
2018-02-09T10:41:25.775Z,93.07
2018-02-09T10:43:53.356Z,86.43
2018-02-09T10:46:21.701Z,91.13
2018-02-09T10:48:49.244Z,88.97
2018-02-09T10:51:16.949Z,88.57
2018-02-09T10:53:44.413Z,82.07
2018-02-09T10:56:11.980Z,86.47
2018-02-09T10:58:40.552Z,89.57
2018-02-09T11:01:08.880Z,90.70
2018-02-09T11:03:36.448Z,92.43
2018-02-09T11:06:04.020Z,87.50
2018-02-09T11:08:31.551Z,89.63
2018-02-09T11:10:59.916Z,91.63
2018-02-09T11:13:33.919Z,89.40
2018-02-09T11:16:01.459Z,88.60
2018-02-09T11:18:29.792Z,87.57
2018-02-09T11:20:57.774Z,95.37
2018-02-09T11:23:26.153Z,90.60
2018-02-09T11:25:53.687Z,94.20
2018-02-09T11:28:21.288Z,91.20
2018-02-09T11:30:48.864Z,94.93
2018-02-09T11:33:17.215Z,89.13
2018-02-09T11:35:45.872Z,94.03
2018-02-09T11:38:13.442Z,88.73
2018-02-09T11:40:41.807Z,95.20
2018-02-09T11:43:09.581Z,91.10
2018-02-09T11:45:37.153Z,97.57
2018-02-09T11:48:04.699Z,89.73
2018-02-09T11:50:32.685Z,95.30
2018-02-09T11:53:01.089Z,93.07
2018-02-09T11:55:28.685Z,85.67
2018-02-09T11:57:56.305Z,86.13
2018-02-09T12:00:23.827Z,87.90
2018-02-09T12:02:51.427Z,82.87
2018-02-09T12:05:19.759Z,84.40
2018-02-09T12:07:47.299Z,82.37
2018-02-09T12:10:14.852Z,79.87
2018-02-09T12:12:42.563Z,80.80
2018-02-09T12:15:10.041Z,88.37
2018-02-09T12:17:37.676Z,85.10
2018-02-09T12:20:05.260Z,83.13
2018-02-09T12:22:32.784Z,78.47
2018-02-09T12:25:00.381Z,79.87
2018-02-09T12:27:27.974Z,79.03
2018-02-09T12:29:55.896Z,82.83
2018-02-09T12:32:23.474Z,80.27
2018-02-09T12:34:51.364Z,80.67
2018-02-09T12:37:18.912Z,80.37
2018-02-09T12:39:46.485Z,74.63
2018-02-09T12:42:14.381Z,80.53
2018-02-09T12:44:42.662Z,86.13
2018-02-09T12:47:10.216Z,78.97
2018-02-09T12:49:37.787Z,81.50
2018-02-09T12:52:05.357Z,80.00
2018-02-09T12:54:32.948Z,97.43
2018-02-09T12:57:00.544Z,75.33
2018-02-09T12:59:28.017Z,66.77
2018-02-09T13:01:56.315Z,58.13
2018-02-09T13:04:23.916Z,64.43
2018-02-09T13:06:52.256Z,62.43
2018-02-09T13:09:20.610Z,61.47
2018-02-09T13:11:48.380Z,61.20
2018-02-09T13:14:37.417Z,59.87
2018-02-09T13:17:05.341Z,57.10
2018-02-09T13:19:32.879Z,56.83
2018-02-09T13:22:00.452Z,56.03
2018-02-09T13:24:28.187Z,51.97
2018-02-09T13:26:55.760Z,51.60
2018-02-09T13:29:24.100Z,55.73
2018-02-09T13:31:51.847Z,52.80
2018-02-09T13:34:19.420Z,47.57
2018-02-09T13:39:57.328Z,48.87
2018-02-09T13:42:24.915Z,48.30
2018-02-09T13:44:52.451Z,48.03
2018-02-09T13:47:20.046Z,50.93
2018-02-09T13:49:47.851Z,49.87
2018-02-09T13:52:15.424Z,49.47
2018-02-09T13:54:43.719Z,53.50
2018-02-09T13:57:11.606Z,49.33
2018-02-09T13:59:39.184Z,49.67
2018-02-09T14:02:07.541Z,52.33
2018-02-09T14:04:35.912Z,51.67
2018-02-09T14:07:04.219Z,49.63
2018-02-09T14:09:31.793Z,48.67
2018-02-09T14:11:59.776Z,49.83
2018-02-09T14:14:27.397Z,53.40
2018-02-09T14:16:54.938Z,52.83
2018-02-09T14:19:22.540Z,51.47
2018-02-09T14:21:50.116Z,51.10
2018-02-09T14:24:17.655Z,47.00
2018-02-09T14:26:45.241Z,46.37
2018-02-09T14:29:12.829Z,48.93
2018-02-09T14:31:40.393Z,51.63
2018-02-09T14:34:08.176Z,50.30
2018-02-09T14:36:36.512Z,48.10
2018-02-09T14:39:04.043Z,52.27
2018-02-09T14:41:31.653Z,49.20
2018-02-09T14:43:59.229Z,46.33
2018-02-09T14:46:26.763Z,44.37
2018-02-09T14:48:54.564Z,48.70
2018-02-09T14:51:22.861Z,40.87
2018-02-09T14:53:50.471Z,46.07
2018-02-09T14:56:18.995Z,47.63
2018-02-09T14:58:46.523Z,46.57
2018-02-09T15:01:14.064Z,47.27
2018-02-09T15:03:41.672Z,47.57
2018-02-09T15:06:09.205Z,46.13
2018-02-09T15:08:37.540Z,44.73
2018-02-09T15:11:05.138Z,46.43
2018-02-09T15:13:32.719Z,45.53
2018-02-09T15:16:01.072Z,47.10
2018-02-09T15:18:28.672Z,42.30
2018-02-09T15:20:57.008Z,47.50
2018-02-09T15:23:24.558Z,47.43
2018-02-09T15:25:52.245Z,45.57
2018-02-09T15:28:19.835Z,44.80
2018-02-09T15:30:47.376Z,44.40
2018-02-09T15:33:15.115Z,44.73
2018-02-09T15:35:42.693Z,44.10
2018-02-09T15:38:11.040Z,47.17
2018-02-09T15:40:38.743Z,45.40
2018-02-09T15:43:06.328Z,43.70
2018-02-09T15:45:33.867Z,44.07
2018-02-09T15:48:01.611Z,47.13
2018-02-09T15:50:29.911Z,48.57
2018-02-09T15:52:58.212Z,46.67
2018-02-09T15:55:25.975Z,42.80
2018-02-09T15:57:53.511Z,45.97
2018-02-09T16:00:21.081Z,47.53
2018-02-09T16:02:48.660Z,45.53
2018-02-09T16:05:16.207Z,45.10
2018-02-09T16:07:43.759Z,46.63
2018-02-09T16:10:11.311Z,45.40
2018-02-09T16:12:38.899Z,44.47
2018-02-09T16:15:06.473Z,41.60
2018-02-09T16:17:34.144Z,47.93
2018-02-09T16:20:01.730Z,48.40
2018-02-09T16:22:29.271Z,43.43
2018-02-09T16:24:57.014Z,44.03
2018-02-09T16:27:24.557Z,44.73
2018-02-09T16:29:52.111Z,46.17
2018-02-09T16:32:20.058Z,48.27
2018-02-09T16:34:47.736Z,50.17
2018-02-09T16:37:16.807Z,45.30
2018-02-09T16:39:45.190Z,48.90
2018-02-09T16:42:12.786Z,47.27
2018-02-09T16:44:40.276Z,46.23
2018-02-09T16:47:08.836Z,44.30
2018-02-09T16:49:37.176Z,45.67
2018-02-09T16:52:04.692Z,45.90
2018-02-09T16:54:32.391Z,50.03
2018-02-09T16:57:00.715Z,46.00
2018-02-09T16:59:28.255Z,45.43
2018-02-09T17:01:55.856Z,50.93
2018-02-09T17:04:23.439Z,47.00
2018-02-09T17:06:50.953Z,49.27
2018-02-09T17:09:18.541Z,49.47
2018-02-09T17:11:46.112Z,48.53
2018-02-09T17:14:14.448Z,49.27
2018-02-09T17:16:42.155Z,51.93
2018-02-09T17:19:09.733Z,54.13
2018-02-09T17:21:37.276Z,54.87
2018-02-09T17:24:04.971Z,51.80
2018-02-09T17:26:32.511Z,48.47
2018-02-09T17:29:00.089Z,53.33
2018-02-09T17:31:28.007Z,54.13
2018-02-09T17:33:55.514Z,51.07
2018-02-09T17:36:23.047Z,50.83
2018-02-09T17:38:50.732Z,51.00
2018-02-09T17:41:19.084Z,51.37
2018-02-09T17:43:47.397Z,55.80
2018-02-09T17:46:15.084Z,54.17
2018-02-09T17:48:42.665Z,51.10
2018-02-09T17:51:10.241Z,49.23
2018-02-09T17:53:38.011Z,52.73
2018-02-09T17:56:05.547Z,51.93
2018-02-09T17:58:33.087Z,49.57
2018-02-09T18:01:00.688Z,50.17
2018-02-09T18:03:28.227Z,50.73
2018-02-09T18:05:55.817Z,50.23
2018-02-09T18:08:23.748Z,50.83
2018-02-09T18:10:51.312Z,54.13
2018-02-09T18:13:18.885Z,50.57
2018-02-09T18:15:46.468Z,55.17
2018-02-09T18:18:14.004Z,56.57
2018-02-09T18:20:41.576Z,52.23
2018-02-09T18:23:09.460Z,50.07
2018-02-09T18:25:37.796Z,52.93
2018-02-09T18:28:05.346Z,54.30
2018-02-09T18:30:33.052Z,57.17
2018-02-09T18:33:00.588Z,57.50
2018-02-09T18:35:28.123Z,56.53
2018-02-09T18:37:56.456Z,52.63
2018-02-09T18:40:24.029Z,53.37
2018-02-09T18:42:52.395Z,57.63
2018-02-09T18:45:20.728Z,56.87
2018-02-09T18:47:48.301Z,54.17
2018-02-09T18:50:16.582Z,57.67
2018-02-09T18:52:44.365Z,53.83
2018-02-09T18:55:11.937Z,55.27
2018-02-09T18:57:40.242Z,55.93
2018-02-09T19:00:07.848Z,50.73
2018-02-09T19:02:36.158Z,53.47
2018-02-09T19:05:03.692Z,48.00
2018-02-09T19:07:31.288Z,52.47
2018-02-09T19:09:58.883Z,55.37
2018-02-09T19:12:26.423Z,51.70
2018-02-09T19:14:54.071Z,53.07
2018-02-09T19:17:21.552Z,54.10
2018-02-09T19:19:49.181Z,52.67
2018-02-09T19:22:16.771Z,52.47
2018-02-09T19:24:45.122Z,52.23
2018-02-09T19:27:13.433Z,52.43
2018-02-09T19:29:41.081Z,75.77
2018-02-09T19:32:08.663Z,60.77
2018-02-09T19:34:36.203Z,55.73
2018-02-09T19:37:03.780Z,55.97
2018-02-09T19:39:32.168Z,56.90
2018-02-09T19:41:59.646Z,51.13
2018-02-09T19:44:27.364Z,49.10
2018-02-09T19:46:55.025Z,53.70
2018-02-09T19:49:22.568Z,52.77
2018-02-09T19:51:50.179Z,52.67
2018-02-09T19:54:17.719Z,52.37
2018-02-09T19:56:45.257Z,51.07
2018-02-09T19:59:12.871Z,54.27
2018-02-09T20:01:40.472Z,53.63
2018-02-09T20:04:08.040Z,48.93
2018-02-09T20:06:35.783Z,50.40
2018-02-09T20:09:03.416Z,48.13
2018-02-09T20:11:30.959Z,52.97
2018-02-09T20:13:58.546Z,52.00
2018-02-09T20:16:26.122Z,51.80
2018-02-09T20:18:53.695Z,52.40
2018-02-09T20:21:21.463Z,58.03
2018-02-09T20:23:48.999Z,56.07
2018-02-09T20:26:16.564Z,51.07
2018-02-09T20:28:44.204Z,55.33
2018-02-09T20:31:12.577Z,51.13
2018-02-09T20:33:40.139Z,51.47
2018-02-09T20:36:08.467Z,55.57
2018-02-09T20:38:36.035Z,52.77
2018-02-09T20:41:04.344Z,54.93
2018-02-09T20:43:31.968Z,48.50
2018-02-09T20:45:59.503Z,56.77
2018-02-09T20:48:27.803Z,50.80
2018-02-09T20:50:55.675Z,45.27
2018-02-09T20:53:23.220Z,48.10
2018-02-09T20:55:50.758Z,51.30
2018-02-09T20:58:18.433Z,53.63
2018-02-09T21:00:46.749Z,77.27
2018-02-09T21:03:14.291Z,51.47
2018-02-09T21:05:42.097Z,52.53
2018-02-09T21:08:10.452Z,50.03
2018-02-09T21:10:38.801Z,44.90
2018-02-09T21:13:06.777Z,46.87
2018-02-09T21:15:34.353Z,47.93
2018-02-09T21:18:01.895Z,49.67
2018-02-09T21:20:29.458Z,47.93
2018-02-09T21:22:57.028Z,50.87
2018-02-09T21:25:24.596Z,51.30
2018-02-09T21:27:52.968Z,46.40
2018-02-09T21:30:20.585Z,48.47
2018-02-09T21:32:48.907Z,51.57
2018-02-09T21:35:16.475Z,50.77
2018-02-09T21:37:44.027Z,52.73
2018-02-09T21:40:11.579Z,47.67
2018-02-09T21:42:39.151Z,49.83
2018-02-09T21:45:06.721Z,55.93
2018-02-09T21:47:34.301Z,55.40
2018-02-09T21:50:02.081Z,53.00
2018-02-09T21:52:30.389Z,54.47
2018-02-09T21:54:57.928Z,51.03
2018-02-09T21:57:25.508Z,53.97
2018-02-09T21:59:53.833Z,51.83
2018-02-09T22:02:21.408Z,50.60
2018-02-09T22:04:48.963Z,50.37
2018-02-09T22:07:16.554Z,54.77
2018-02-09T22:09:44.125Z,49.60
2018-02-09T22:12:12.636Z,55.77
2018-02-09T22:14:40.972Z,51.57
2018-02-09T22:17:08.503Z,49.80
2018-02-09T22:19:36.185Z,48.33
2018-02-09T22:22:03.855Z,53.80
2018-02-09T22:24:31.408Z,46.30
2018-02-09T22:26:59.001Z,51.23
2018-02-09T22:29:26.534Z,50.33
2018-02-09T22:31:54.109Z,45.80
2018-02-09T22:34:22.725Z,49.27
2018-02-09T22:36:50.326Z,49.07
2018-02-09T22:39:17.916Z,50.60
2018-02-09T22:41:45.482Z,54.67
2018-02-09T22:44:13.812Z,55.13
2018-02-09T22:46:41.380Z,52.63
2018-02-09T22:51:55.592Z,51.23
2018-02-09T22:54:23.118Z,55.73
2018-02-09T22:56:50.694Z,55.33
2018-02-09T22:59:18.268Z,55.13
2018-02-09T23:01:46.600Z,53.63
2018-02-09T23:04:14.182Z,54.60
2018-02-09T23:06:42.548Z,52.83
2018-02-09T23:09:10.850Z,53.57
2018-02-09T23:11:38.991Z,57.87
2018-02-09T23:14:06.774Z,54.93
2018-02-09T23:16:34.344Z,51.33
2018-02-09T23:19:01.929Z,53.53
2018-02-09T23:21:29.750Z,53.13
2018-02-09T23:23:58.087Z,53.93
2018-02-09T23:26:25.661Z,56.20
2018-02-09T23:28:54.121Z,60.00
2018-02-09T23:31:22.447Z,53.90
2018-02-09T23:33:50.017Z,54.03
2018-02-09T23:36:17.618Z,52.90
2018-02-09T23:38:45.188Z,53.27
2018-02-09T23:41:12.727Z,49.53
2018-02-09T23:43:40.358Z,59.40
2018-02-09T23:46:07.920Z,54.87
2018-02-09T23:48:35.465Z,54.67
2018-02-09T23:51:03.415Z,53.57
2018-02-09T23:53:30.918Z,54.30
2018-02-09T23:55:59.197Z,56.73
2018-02-09T23:58:27.016Z,53.13
